sensor_id;sensor_type;location;lat;lon;timestamp;temperature;humidity
45849;DHT22;31567;54.600;9.842;2024-03-17T00:02:12;5.90;99.20
45849;DHT22;31567;54.600;9.842;2024-03-17T00:05:56;5.90;99.20
45849;DHT22;31567;54.600;9.842;2024-03-17T00:09:36;5.90;99.20
45849;DHT22;31567;54.600;9.842;2024-03-17T00:13:16;5.90;99.20
45849;DHT22;31567;54.600;9.842;2024-03-17T00:16:56;5.90;99.30
45849;DHT22;31567;54.600;9.842;2024-03-17T00:20:36;6.00;99.40
45849;DHT22;31567;54.600;9.842;2024-03-17T00:24:18;5.90;99.30
45849;DHT22;31567;54.600;9.842;2024-03-17T00:27:59;5.90;99.40
45849;DHT22;31567;54.600;9.842;2024-03-17T00:31:38;5.90;99.40
45849;DHT22;31567;54.600;9.842;2024-03-17T00:35:18;5.90;99.40
45849;DHT22;31567;54.600;9.842;2024-03-17T00:39:01;5.90;99.50
45849;DHT22;31567;54.600;9.842;2024-03-17T00:42:40;5.90;99.50
45849;DHT22;31567;54.600;9.842;2024-03-17T00:46:23;5.90;99.60
45849;DHT22;31567;54.600;9.842;2024-03-17T00:50:04;5.90;99.60
45849;DHT22;31567;54.600;9.842;2024-03-17T00:53:46;5.90;99.60
45849;DHT22;31567;54.600;9.842;2024-03-17T00:57:26;5.90;99.50
45849;DHT22;31567;54.600;9.842;2024-03-17T01:01:05;5.90;99.60
45849;DHT22;31567;54.600;9.842;2024-03-17T01:04:45;5.80;99.60
45849;DHT22;31567;54.600;9.842;2024-03-17T01:08:24;5.80;99.60
45849;DHT22;31567;54.600;9.842;2024-03-17T01:12:04;5.70;99.50
45849;DHT22;31567;54.600;9.842;2024-03-17T01:15:45;5.70;99.60
45849;DHT22;31567;54.600;9.842;2024-03-17T01:19:24;5.70;99.60
45849;DHT22;31567;54.600;9.842;2024-03-17T01:23:05;5.70;99.70
45849;DHT22;31567;54.600;9.842;2024-03-17T01:26:45;5.60;99.70
45849;DHT22;31567;54.600;9.842;2024-03-17T01:30:25;5.60;99.70
45849;DHT22;31567;54.600;9.842;2024-03-17T01:34:04;5.50;99.80
45849;DHT22;31567;54.600;9.842;2024-03-17T01:37:44;5.50;99.80
45849;DHT22;31567;54.600;9.842;2024-03-17T01:41:23;5.50;99.80
45849;DHT22;31567;54.600;9.842;2024-03-17T01:45:28;5.40;99.80
45849;DHT22;31567;54.600;9.842;2024-03-17T01:49:08;5.40;99.90
45849;DHT22;31567;54.600;9.842;2024-03-17T01:52:48;5.40;99.80
45849;DHT22;31567;54.600;9.842;2024-03-17T01:56:28;5.40;99.90
45849;DHT22;31567;54.600;9.842;2024-03-17T02:00:08;5.30;99.90
45849;DHT22;31567;54.600;9.842;2024-03-17T02:03:47;5.40;99.90
45849;DHT22;31567;54.600;9.842;2024-03-17T02:07:27;5.30;99.90
45849;DHT22;31567;54.600;9.842;2024-03-17T02:11:32;5.30;99.90
45849;DHT22;31567;54.600;9.842;2024-03-17T02:15:12;5.20;99.90
45849;DHT22;31567;54.600;9.842;2024-03-17T02:18:55;5.10;99.90
45849;DHT22;31567;54.600;9.842;2024-03-17T02:22:35;5.20;99.90
45849;DHT22;31567;54.600;9.842;2024-03-17T02:26:15;5.10;99.90
45849;DHT22;31567;54.600;9.842;2024-03-17T02:29:55;5.10;99.90
45849;DHT22;31567;54.600;9.842;2024-03-17T02:33:34;5.00;99.90
45849;DHT22;31567;54.600;9.842;2024-03-17T02:37:14;4.90;99.90
45849;DHT22;31567;54.600;9.842;2024-03-17T02:40:54;4.90;99.90
45849;DHT22;31567;54.600;9.842;2024-03-17T02:44:35;4.70;99.90
45849;DHT22;31567;54.600;9.842;2024-03-17T02:48:15;4.70;99.90
45849;DHT22;31567;54.600;9.842;2024-03-17T02:51:54;4.60;99.90
45849;DHT22;31567;54.600;9.842;2024-03-17T02:55:34;4.50;99.90
45849;DHT22;31567;54.600;9.842;2024-03-17T02:59:13;4.50;99.90
45849;DHT22;31567;54.600;9.842;2024-03-17T03:02:53;4.60;99.90
45849;DHT22;31567;54.600;9.842;2024-03-17T03:06:36;4.60;99.90
45849;DHT22;31567;54.600;9.842;2024-03-17T03:10:15;4.60;99.90
45849;DHT22;31567;54.600;9.842;2024-03-17T03:13:55;4.60;99.90
45849;DHT22;31567;54.600;9.842;2024-03-17T03:17:34;4.60;99.90
45849;DHT22;31567;54.600;9.842;2024-03-17T03:21:14;4.60;99.90
45849;DHT22;31567;54.600;9.842;2024-03-17T03:24:53;4.60;99.90
45849;DHT22;31567;54.600;9.842;2024-03-17T03:28:33;4.50;99.90
45849;DHT22;31567;54.600;9.842;2024-03-17T03:32:13;4.40;99.90
45849;DHT22;31567;54.600;9.842;2024-03-17T03:35:53;4.40;99.90
45849;DHT22;31567;54.600;9.842;2024-03-17T03:39:32;4.20;99.90
45849;DHT22;31567;54.600;9.842;2024-03-17T03:43:12;4.00;99.90
45849;DHT22;31567;54.600;9.842;2024-03-17T03:46:53;3.90;99.90
45849;DHT22;31567;54.600;9.842;2024-03-17T03:50:38;3.90;99.90
45849;DHT22;31567;54.600;9.842;2024-03-17T03:54:17;3.90;99.90
45849;DHT22;31567;54.600;9.842;2024-03-17T03:57:57;3.80;99.90
45849;DHT22;31567;54.600;9.842;2024-03-17T04:01:36;3.80;99.90
45849;DHT22;31567;54.600;9.842;2024-03-17T04:05:16;3.70;99.90
45849;DHT22;31567;54.600;9.842;2024-03-17T04:08:56;3.60;99.90
45849;DHT22;31567;54.600;9.842;2024-03-17T04:12:36;3.60;99.90
45849;DHT22;31567;54.600;9.842;2024-03-17T04:16:15;3.50;99.90
45849;DHT22;31567;54.600;9.842;2024-03-17T04:19:55;3.40;99.90
45849;DHT22;31567;54.600;9.842;2024-03-17T04:23:35;3.40;99.90
45849;DHT22;31567;54.600;9.842;2024-03-17T04:27:15;3.40;99.90
45849;DHT22;31567;54.600;9.842;2024-03-17T04:31:05;3.40;99.90
45849;DHT22;31567;54.600;9.842;2024-03-17T04:34:45;3.40;99.90
45849;DHT22;31567;54.600;9.842;2024-03-17T04:38:25;3.20;99.90
45849;DHT22;31567;54.600;9.842;2024-03-17T04:42:06;3.10;99.90
45849;DHT22;31567;54.600;9.842;2024-03-17T04:45:46;3.10;99.90
45849;DHT22;31567;54.600;9.842;2024-03-17T04:49:27;3.20;99.90
45849;DHT22;31567;54.600;9.842;2024-03-17T04:53:06;3.20;99.90
45849;DHT22;31567;54.600;9.842;2024-03-17T04:56:46;3.10;99.90
45849;DHT22;31567;54.600;9.842;2024-03-17T05:00:26;3.10;99.90
45849;DHT22;31567;54.600;9.842;2024-03-17T05:04:06;3.10;99.90
45849;DHT22;31567;54.600;9.842;2024-03-17T05:07:45;3.10;99.90
45849;DHT22;31567;54.600;9.842;2024-03-17T05:11:25;3.10;99.90
45849;DHT22;31567;54.600;9.842;2024-03-17T05:15:05;3.10;99.90
45849;DHT22;31567;54.600;9.842;2024-03-17T05:18:44;3.10;99.90
45849;DHT22;31567;54.600;9.842;2024-03-17T05:22:24;3.10;99.90
45849;DHT22;31567;54.600;9.842;2024-03-17T05:26:04;3.10;99.90
45849;DHT22;31567;54.600;9.842;2024-03-17T05:29:43;3.10;99.90
45849;DHT22;31567;54.600;9.842;2024-03-17T05:33:25;3.10;99.90
45849;DHT22;31567;54.600;9.842;2024-03-17T05:37:04;3.10;99.90
45849;DHT22;31567;54.600;9.842;2024-03-17T05:40:52;2.90;99.90
45849;DHT22;31567;54.600;9.842;2024-03-17T05:44:32;2.90;99.90
45849;DHT22;31567;54.600;9.842;2024-03-17T05:48:32;2.80;99.90
45849;DHT22;31567;54.600;9.842;2024-03-17T05:52:12;2.70;99.90
45849;DHT22;31567;54.600;9.842;2024-03-17T05:55:52;2.80;99.90
45849;DHT22;31567;54.600;9.842;2024-03-17T05:59:31;2.90;99.90
45849;DHT22;31567;54.600;9.842;2024-03-17T06:03:11;3.00;99.90
45849;DHT22;31567;54.600;9.842;2024-03-17T06:06:51;3.10;99.90
45849;DHT22;31567;54.600;9.842;2024-03-17T06:10:31;3.10;99.90
45849;DHT22;31567;54.600;9.842;2024-03-17T06:14:11;3.20;99.90
45849;DHT22;31567;54.600;9.842;2024-03-17T06:17:52;3.30;99.90
45849;DHT22;31567;54.600;9.842;2024-03-17T06:21:31;3.40;99.90
45849;DHT22;31567;54.600;9.842;2024-03-17T06:25:11;3.50;99.90
45849;DHT22;31567;54.600;9.842;2024-03-17T06:28:51;3.60;99.90
45849;DHT22;31567;54.600;9.842;2024-03-17T06:32:31;3.70;99.90
45849;DHT22;31567;54.600;9.842;2024-03-17T06:36:10;3.80;99.90
45849;DHT22;31567;54.600;9.842;2024-03-17T06:39:51;3.70;99.90
45849;DHT22;31567;54.600;9.842;2024-03-17T06:43:30;3.80;99.90
45849;DHT22;31567;54.600;9.842;2024-03-17T06:47:10;3.90;99.90
45849;DHT22;31567;54.600;9.842;2024-03-17T06:50:49;4.00;99.90
45849;DHT22;31567;54.600;9.842;2024-03-17T06:54:31;4.00;99.90
45849;DHT22;31567;54.600;9.842;2024-03-17T06:58:15;4.20;99.90
45849;DHT22;31567;54.600;9.842;2024-03-17T07:01:54;4.30;99.90
45849;DHT22;31567;54.600;9.842;2024-03-17T07:05:34;4.50;99.90
45849;DHT22;31567;54.600;9.842;2024-03-17T07:09:13;4.70;99.90
45849;DHT22;31567;54.600;9.842;2024-03-17T07:12:53;4.80;99.90
45849;DHT22;31567;54.600;9.842;2024-03-17T07:16:32;4.90;99.90
45849;DHT22;31567;54.600;9.842;2024-03-17T07:20:12;5.00;99.90
45849;DHT22;31567;54.600;9.842;2024-03-17T07:23:52;5.10;99.90
45849;DHT22;31567;54.600;9.842;2024-03-17T07:27:31;5.30;99.90
45849;DHT22;31567;54.600;9.842;2024-03-17T07:31:11;5.40;99.90
45849;DHT22;31567;54.600;9.842;2024-03-17T07:34:51;5.60;99.90
45849;DHT22;31567;54.600;9.842;2024-03-17T07:38:31;5.70;99.90
45849;DHT22;31567;54.600;9.842;2024-03-17T07:42:10;5.70;99.90
45849;DHT22;31567;54.600;9.842;2024-03-17T07:45:59;5.80;99.90
45849;DHT22;31567;54.600;9.842;2024-03-17T07:49:39;5.90;99.90
45849;DHT22;31567;54.600;9.842;2024-03-17T07:53:18;6.00;99.90
45849;DHT22;31567;54.600;9.842;2024-03-17T07:56:58;6.10;99.90
45849;DHT22;31567;54.600;9.842;2024-03-17T08:00:37;6.20;99.30
45849;DHT22;31567;54.600;9.842;2024-03-17T08:04:17;6.20;99.00
45849;DHT22;31567;54.600;9.842;2024-03-17T08:07:57;6.20;98.30
45849;DHT22;31567;54.600;9.842;2024-03-17T08:11:36;6.10;97.90
45849;DHT22;31567;54.600;9.842;2024-03-17T08:15:16;6.20;97.90
45849;DHT22;31567;54.600;9.842;2024-03-17T08:18:56;6.20;97.80
45849;DHT22;31567;54.600;9.842;2024-03-17T08:22:36;6.30;97.70
45849;DHT22;31567;54.600;9.842;2024-03-17T08:26:15;6.30;97.60
45849;DHT22;31567;54.600;9.842;2024-03-17T08:29:55;6.40;97.80
45849;DHT22;31567;54.600;9.842;2024-03-17T08:33:34;6.60;97.80
45849;DHT22;31567;54.600;9.842;2024-03-17T08:37:14;6.70;97.40
45849;DHT22;31567;54.600;9.842;2024-03-17T08:40:55;6.80;97.10
45849;DHT22;31567;54.600;9.842;2024-03-17T08:44:34;6.90;97.30
45849;DHT22;31567;54.600;9.842;2024-03-17T08:48:14;7.00;97.10
45849;DHT22;31567;54.600;9.842;2024-03-17T08:51:53;7.20;97.10
45849;DHT22;31567;54.600;9.842;2024-03-17T08:55:33;7.30;96.90
45849;DHT22;31567;54.600;9.842;2024-03-17T08:59:13;7.40;96.90
45849;DHT22;31567;54.600;9.842;2024-03-17T09:02:52;7.50;96.60
45849;DHT22;31567;54.600;9.842;2024-03-17T09:06:32;7.60;96.40
45849;DHT22;31567;54.600;9.842;2024-03-17T09:10:11;7.60;96.30
45849;DHT22;31567;54.600;9.842;2024-03-17T09:13:52;7.70;96.50
45849;DHT22;31567;54.600;9.842;2024-03-17T09:17:32;7.80;96.20
45849;DHT22;31567;54.600;9.842;2024-03-17T09:21:11;7.80;96.00
45849;DHT22;31567;54.600;9.842;2024-03-17T09:24:52;8.00;95.80
45849;DHT22;31567;54.600;9.842;2024-03-17T09:28:32;8.10;95.50
45849;DHT22;31567;54.600;9.842;2024-03-17T09:32:12;8.10;95.20
45849;DHT22;31567;54.600;9.842;2024-03-17T09:36:01;8.30;94.90
45849;DHT22;31567;54.600;9.842;2024-03-17T09:39:41;8.30;94.60
45849;DHT22;31567;54.600;9.842;2024-03-17T09:43:22;8.40;94.20
45849;DHT22;31567;54.600;9.842;2024-03-17T09:47:04;8.50;93.90
45849;DHT22;31567;54.600;9.842;2024-03-17T09:50:50;8.60;93.80
45849;DHT22;31567;54.600;9.842;2024-03-17T09:54:31;8.60;93.50
45849;DHT22;31567;54.600;9.842;2024-03-17T09:58:16;8.70;93.60
45849;DHT22;31567;54.600;9.842;2024-03-17T10:01:58;8.80;93.60
45849;DHT22;31567;54.600;9.842;2024-03-17T10:05:38;8.80;93.40
45849;DHT22;31567;54.600;9.842;2024-03-17T10:09:18;8.90;93.50
45849;DHT22;31567;54.600;9.842;2024-03-17T10:13:00;9.00;93.30
45849;DHT22;31567;54.600;9.842;2024-03-17T10:16:40;9.10;93.30
45849;DHT22;31567;54.600;9.842;2024-03-17T10:20:21;9.20;93.10
45849;DHT22;31567;54.600;9.842;2024-03-17T10:27:48;9.40;93.00
45849;DHT22;31567;54.600;9.842;2024-03-17T10:31:28;9.40;93.00
45849;DHT22;31567;54.600;9.842;2024-03-17T10:35:26;9.50;93.00
45849;DHT22;31567;54.600;9.842;2024-03-17T10:39:22;9.60;92.60
45849;DHT22;31567;54.600;9.842;2024-03-17T10:43:07;9.70;92.30
45849;DHT22;31567;54.600;9.842;2024-03-17T10:46:52;9.70;91.90
45849;DHT22;31567;54.600;9.842;2024-03-17T10:50:36;9.60;91.80
45849;DHT22;31567;54.600;9.842;2024-03-17T10:54:24;9.70;92.10
45849;DHT22;31567;54.600;9.842;2024-03-17T10:58:33;9.80;92.10
45849;DHT22;31567;54.600;9.842;2024-03-17T11:02:24;9.90;91.90
45849;DHT22;31567;54.600;9.842;2024-03-17T11:06:04;10.00;91.80
45849;DHT22;31567;54.600;9.842;2024-03-17T11:09:45;10.10;91.80
45849;DHT22;31567;54.600;9.842;2024-03-17T11:13:28;10.10;91.70
45849;DHT22;31567;54.600;9.842;2024-03-17T11:17:18;10.20;91.50
45849;DHT22;31567;54.600;9.842;2024-03-17T11:21:18;10.20;91.20
45849;DHT22;31567;54.600;9.842;2024-03-17T11:29:05;10.30;91.30
45849;DHT22;31567;54.600;9.842;2024-03-17T11:32:46;10.20;91.20
45849;DHT22;31567;54.600;9.842;2024-03-17T11:40:23;10.30;91.00
45849;DHT22;31567;54.600;9.842;2024-03-17T11:47:58;10.40;90.80
45849;DHT22;31567;54.600;9.842;2024-03-17T11:51:38;10.50;90.80
45849;DHT22;31567;54.600;9.842;2024-03-17T11:55:19;10.60;90.80
45849;DHT22;31567;54.600;9.842;2024-03-17T11:59:05;10.80;90.90
45849;DHT22;31567;54.600;9.842;2024-03-17T12:02:49;10.90;90.60
45849;DHT22;31567;54.600;9.842;2024-03-17T12:06:29;11.00;90.40
45849;DHT22;31567;54.600;9.842;2024-03-17T12:10:10;11.10;90.20
45849;DHT22;31567;54.600;9.842;2024-03-17T12:13:50;11.10;90.00
45849;DHT22;31567;54.600;9.842;2024-03-17T12:17:30;11.20;89.80
45849;DHT22;31567;54.600;9.842;2024-03-17T12:21:13;11.30;90.00
45849;DHT22;31567;54.600;9.842;2024-03-17T12:24:55;11.40;89.70
45849;DHT22;31567;54.600;9.842;2024-03-17T12:28:35;11.50;89.50
45849;DHT22;31567;54.600;9.842;2024-03-17T12:32:17;11.50;89.20
45849;DHT22;31567;54.600;9.842;2024-03-17T12:35:56;11.50;88.40
45849;DHT22;31567;54.600;9.842;2024-03-17T12:39:41;11.50;88.40
45849;DHT22;31567;54.600;9.842;2024-03-17T12:43:21;11.40;88.30
45849;DHT22;31567;54.600;9.842;2024-03-17T12:47:04;11.40;88.40
45849;DHT22;31567;54.600;9.842;2024-03-17T12:50:46;11.40;88.30
45849;DHT22;31567;54.600;9.842;2024-03-17T12:54:28;11.40;88.10
45849;DHT22;31567;54.600;9.842;2024-03-17T12:58:09;11.50;88.10
45849;DHT22;31567;54.600;9.842;2024-03-17T13:02:11;11.40;88.00
45849;DHT22;31567;54.600;9.842;2024-03-17T13:05:51;11.50;87.70
45849;DHT22;31567;54.600;9.842;2024-03-17T13:09:31;11.50;87.20
45849;DHT22;31567;54.600;9.842;2024-03-17T13:13:12;11.60;87.30
45849;DHT22;31567;54.600;9.842;2024-03-17T13:16:54;11.60;86.90
45849;DHT22;31567;54.600;9.842;2024-03-17T13:20:34;11.60;86.40
45849;DHT22;31567;54.600;9.842;2024-03-17T13:24:14;11.60;86.50
45849;DHT22;31567;54.600;9.842;2024-03-17T13:27:54;11.60;86.40
45849;DHT22;31567;54.600;9.842;2024-03-17T13:31:33;11.50;86.10
45849;DHT22;31567;54.600;9.842;2024-03-17T13:35:20;11.60;85.80
45849;DHT22;31567;54.600;9.842;2024-03-17T13:39:00;11.60;86.10
45849;DHT22;31567;54.600;9.842;2024-03-17T13:42:39;11.70;86.80
45849;DHT22;31567;54.600;9.842;2024-03-17T13:46:19;11.70;86.70
45849;DHT22;31567;54.600;9.842;2024-03-17T13:49:59;11.80;86.10
45849;DHT22;31567;54.600;9.842;2024-03-17T13:53:38;11.80;85.40
45849;DHT22;31567;54.600;9.842;2024-03-17T13:57:18;11.70;85.10
45849;DHT22;31567;54.600;9.842;2024-03-17T14:00:57;11.70;85.30
45849;DHT22;31567;54.600;9.842;2024-03-17T14:04:37;11.80;85.80
45849;DHT22;31567;54.600;9.842;2024-03-17T14:08:16;11.80;85.30
45849;DHT22;31567;54.600;9.842;2024-03-17T14:11:56;12.00;85.40
45849;DHT22;31567;54.600;9.842;2024-03-17T14:15:36;12.10;84.90
45849;DHT22;31567;54.600;9.842;2024-03-17T14:19:15;12.20;84.60
45849;DHT22;31567;54.600;9.842;2024-03-17T14:22:55;12.30;83.60
45849;DHT22;31567;54.600;9.842;2024-03-17T14:26:36;12.40;83.90
45849;DHT22;31567;54.600;9.842;2024-03-17T14:30:17;12.50;84.00
45849;DHT22;31567;54.600;9.842;2024-03-17T14:33:58;12.60;84.10
45849;DHT22;31567;54.600;9.842;2024-03-17T14:37:38;12.40;84.00
45849;DHT22;31567;54.600;9.842;2024-03-17T14:41:17;12.40;84.20
45849;DHT22;31567;54.600;9.842;2024-03-17T14:44:57;12.30;83.50
45849;DHT22;31567;54.600;9.842;2024-03-17T14:48:36;12.00;83.40
45849;DHT22;31567;54.600;9.842;2024-03-17T14:52:16;11.80;83.70
45849;DHT22;31567;54.600;9.842;2024-03-17T14:55:56;11.60;84.60
45849;DHT22;31567;54.600;9.842;2024-03-17T14:59:35;11.50;84.80
45849;DHT22;31567;54.600;9.842;2024-03-17T15:03:15;11.50;85.20
45849;DHT22;31567;54.600;9.842;2024-03-17T15:06:54;11.50;85.90
45849;DHT22;31567;54.600;9.842;2024-03-17T15:10:34;11.50;86.10
45849;DHT22;31567;54.600;9.842;2024-03-17T15:14:14;11.60;85.80
45849;DHT22;31567;54.600;9.842;2024-03-17T15:17:54;11.70;85.50
45849;DHT22;31567;54.600;9.842;2024-03-17T15:21:33;11.80;85.80
45849;DHT22;31567;54.600;9.842;2024-03-17T15:25:13;11.80;85.40
45849;DHT22;31567;54.600;9.842;2024-03-17T15:28:53;11.60;85.20
45849;DHT22;31567;54.600;9.842;2024-03-17T15:32:33;11.40;85.70
45849;DHT22;31567;54.600;9.842;2024-03-17T15:36:12;11.10;86.00
45849;DHT22;31567;54.600;9.842;2024-03-17T15:39:52;10.80;86.80
45849;DHT22;31567;54.600;9.842;2024-03-17T15:43:35;10.60;87.60
45849;DHT22;31567;54.600;9.842;2024-03-17T15:47:17;10.50;88.40
45849;DHT22;31567;54.600;9.842;2024-03-17T15:50:58;10.40;89.00
45849;DHT22;31567;54.600;9.842;2024-03-17T15:54:37;10.20;89.40
45849;DHT22;31567;54.600;9.842;2024-03-17T15:58:17;10.00;89.90
45849;DHT22;31567;54.600;9.842;2024-03-17T16:01:56;9.90;90.10
45849;DHT22;31567;54.600;9.842;2024-03-17T16:05:36;9.70;90.20
45849;DHT22;31567;54.600;9.842;2024-03-17T16:09:15;9.60;90.40
45849;DHT22;31567;54.600;9.842;2024-03-17T16:12:57;9.50;90.80
45849;DHT22;31567;54.600;9.842;2024-03-17T16:16:39;9.40;91.00
45849;DHT22;31567;54.600;9.842;2024-03-17T16:24:28;9.20;91.50
45849;DHT22;31567;54.600;9.842;2024-03-17T16:28:09;9.10;91.60
45849;DHT22;31567;54.600;9.842;2024-03-17T16:31:50;8.90;91.70
45849;DHT22;31567;54.600;9.842;2024-03-17T16:35:30;8.80;91.80
45849;DHT22;31567;54.600;9.842;2024-03-17T16:39:10;8.80;91.90
45849;DHT22;31567;54.600;9.842;2024-03-17T16:42:50;8.70;92.10
45849;DHT22;31567;54.600;9.842;2024-03-17T16:50:16;8.60;92.50
45849;DHT22;31567;54.600;9.842;2024-03-17T16:53:55;8.50;92.60
45849;DHT22;31567;54.600;9.842;2024-03-17T16:57:36;8.40;92.60
45849;DHT22;31567;54.600;9.842;2024-03-17T17:01:16;8.40;92.80
45849;DHT22;31567;54.600;9.842;2024-03-17T17:04:55;8.30;92.90
45849;DHT22;31567;54.600;9.842;2024-03-17T17:08:35;8.30;92.90
45849;DHT22;31567;54.600;9.842;2024-03-17T17:12:14;8.20;93.00
45849;DHT22;31567;54.600;9.842;2024-03-17T17:15:54;8.20;93.10
45849;DHT22;31567;54.600;9.842;2024-03-17T17:19:34;8.20;93.20
45849;DHT22;31567;54.600;9.842;2024-03-17T17:23:16;8.10;93.40
45849;DHT22;31567;54.600;9.842;2024-03-17T17:26:57;8.10;93.50
45849;DHT22;31567;54.600;9.842;2024-03-17T17:30:37;8.00;93.50
45849;DHT22;31567;54.600;9.842;2024-03-17T17:34:17;7.90;93.70
45849;DHT22;31567;54.600;9.842;2024-03-17T17:37:56;7.90;93.80
45849;DHT22;31567;54.600;9.842;2024-03-17T17:41:36;7.90;93.90
45849;DHT22;31567;54.600;9.842;2024-03-17T17:45:16;7.80;93.80
45849;DHT22;31567;54.600;9.842;2024-03-17T17:48:56;7.70;93.90
45849;DHT22;31567;54.600;9.842;2024-03-17T17:52:36;7.70;94.00
45849;DHT22;31567;54.600;9.842;2024-03-17T17:56:17;7.60;94.10
45849;DHT22;31567;54.600;9.842;2024-03-17T17:59:57;7.60;94.30
45849;DHT22;31567;54.600;9.842;2024-03-17T18:03:37;7.60;94.50
45849;DHT22;31567;54.600;9.842;2024-03-17T18:07:18;7.60;94.60
45849;DHT22;31567;54.600;9.842;2024-03-17T18:10:57;7.50;94.80
45849;DHT22;31567;54.600;9.842;2024-03-17T18:14:37;7.50;94.90
45849;DHT22;31567;54.600;9.842;2024-03-17T18:18:17;7.50;95.00
45849;DHT22;31567;54.600;9.842;2024-03-17T18:21:59;7.50;95.10
45849;DHT22;31567;54.600;9.842;2024-03-17T18:25:39;7.40;95.30
45849;DHT22;31567;54.600;9.842;2024-03-17T18:29:18;7.40;95.40
45849;DHT22;31567;54.600;9.842;2024-03-17T18:32:58;7.40;95.60
45849;DHT22;31567;54.600;9.842;2024-03-17T18:36:38;7.40;95.70
45849;DHT22;31567;54.600;9.842;2024-03-17T18:40:18;7.40;95.80
45849;DHT22;31567;54.600;9.842;2024-03-17T18:43:57;7.40;96.00
45849;DHT22;31567;54.600;9.842;2024-03-17T18:47:37;7.40;96.10
45849;DHT22;31567;54.600;9.842;2024-03-17T18:51:18;7.30;96.20
45849;DHT22;31567;54.600;9.842;2024-03-17T18:55:00;7.30;96.30
45849;DHT22;31567;54.600;9.842;2024-03-17T18:58:40;7.20;96.40
45849;DHT22;31567;54.600;9.842;2024-03-17T19:02:20;7.30;96.60
45849;DHT22;31567;54.600;9.842;2024-03-17T19:06:08;7.20;96.80
45849;DHT22;31567;54.600;9.842;2024-03-17T19:09:48;7.20;96.90
45849;DHT22;31567;54.600;9.842;2024-03-17T19:13:28;7.20;97.00
45849;DHT22;31567;54.600;9.842;2024-03-17T19:17:07;7.10;97.10
45849;DHT22;31567;54.600;9.842;2024-03-17T19:20:48;7.10;97.20
45849;DHT22;31567;54.600;9.842;2024-03-17T19:24:28;7.10;97.30
45849;DHT22;31567;54.600;9.842;2024-03-17T19:28:07;7.00;97.40
45849;DHT22;31567;54.600;9.842;2024-03-17T19:31:49;7.00;97.50
45849;DHT22;31567;54.600;9.842;2024-03-17T19:35:29;6.90;97.50
45849;DHT22;31567;54.600;9.842;2024-03-17T19:39:09;6.90;97.70
45849;DHT22;31567;54.600;9.842;2024-03-17T19:42:49;6.90;97.70
45849;DHT22;31567;54.600;9.842;2024-03-17T19:46:28;6.90;97.80
45849;DHT22;31567;54.600;9.842;2024-03-17T19:50:08;6.90;97.90
45849;DHT22;31567;54.600;9.842;2024-03-17T19:53:49;6.80;98.00
45849;DHT22;31567;54.600;9.842;2024-03-17T19:57:28;6.80;98.10
45849;DHT22;31567;54.600;9.842;2024-03-17T20:01:08;6.80;98.10
45849;DHT22;31567;54.600;9.842;2024-03-17T20:04:48;6.80;98.20
45849;DHT22;31567;54.600;9.842;2024-03-17T20:08:27;6.70;98.30
45849;DHT22;31567;54.600;9.842;2024-03-17T20:12:07;6.70;98.50
45849;DHT22;31567;54.600;9.842;2024-03-17T20:15:50;6.70;98.60
45849;DHT22;31567;54.600;9.842;2024-03-17T20:19:29;6.70;98.70
45849;DHT22;31567;54.600;9.842;2024-03-17T20:23:09;6.70;98.80
45849;DHT22;31567;54.600;9.842;2024-03-17T20:26:49;6.70;99.00
45849;DHT22;31567;54.600;9.842;2024-03-17T20:30:28;6.80;99.10
45849;DHT22;31567;54.600;9.842;2024-03-17T20:34:08;6.70;99.10
45849;DHT22;31567;54.600;9.842;2024-03-17T20:37:48;6.70;99.20
45849;DHT22;31567;54.600;9.842;2024-03-17T20:41:28;6.70;99.20
45849;DHT22;31567;54.600;9.842;2024-03-17T20:45:08;6.70;99.20
45849;DHT22;31567;54.600;9.842;2024-03-17T20:48:47;6.60;99.20
45849;DHT22;31567;54.600;9.842;2024-03-17T20:52:27;6.60;99.10
45849;DHT22;31567;54.600;9.842;2024-03-17T20:56:07;6.60;99.10
45849;DHT22;31567;54.600;9.842;2024-03-17T20:59:46;6.50;99.00
45849;DHT22;31567;54.600;9.842;2024-03-17T21:03:26;6.50;99.00
45849;DHT22;31567;54.600;9.842;2024-03-17T21:07:05;6.50;99.00
45849;DHT22;31567;54.600;9.842;2024-03-17T21:10:56;6.40;99.00
45849;DHT22;31567;54.600;9.842;2024-03-17T21:14:36;6.40;99.10
45849;DHT22;31567;54.600;9.842;2024-03-17T21:18:16;6.40;99.10
45849;DHT22;31567;54.600;9.842;2024-03-17T21:21:56;6.30;99.10
45849;DHT22;31567;54.600;9.842;2024-03-17T21:25:36;6.30;99.10
45849;DHT22;31567;54.600;9.842;2024-03-17T21:29:15;6.30;99.00
45849;DHT22;31567;54.600;9.842;2024-03-17T21:32:55;6.20;98.90
45849;DHT22;31567;54.600;9.842;2024-03-17T21:36:34;6.20;98.80
45849;DHT22;31567;54.600;9.842;2024-03-17T21:40:15;6.10;98.80
45849;DHT22;31567;54.600;9.842;2024-03-17T21:43:55;6.10;98.90
45849;DHT22;31567;54.600;9.842;2024-03-17T21:47:37;6.00;98.90
45849;DHT22;31567;54.600;9.842;2024-03-17T21:51:16;6.10;99.10
45849;DHT22;31567;54.600;9.842;2024-03-17T21:54:57;6.00;99.00
45849;DHT22;31567;54.600;9.842;2024-03-17T21:58:36;6.00;99.00
45849;DHT22;31567;54.600;9.842;2024-03-17T22:02:16;6.00;99.10
45849;DHT22;31567;54.600;9.842;2024-03-17T22:05:55;5.90;99.10
45849;DHT22;31567;54.600;9.842;2024-03-17T22:09:35;6.00;99.20
45849;DHT22;31567;54.600;9.842;2024-03-17T22:13:15;6.00;99.20
45849;DHT22;31567;54.600;9.842;2024-03-17T22:16:54;6.00;99.30
45849;DHT22;31567;54.600;9.842;2024-03-17T22:20:34;6.00;99.40
45849;DHT22;31567;54.600;9.842;2024-03-17T22:24:13;5.90;99.50
45849;DHT22;31567;54.600;9.842;2024-03-17T22:27:54;5.80;99.50
45849;DHT22;31567;54.600;9.842;2024-03-17T22:31:34;5.90;99.50
45849;DHT22;31567;54.600;9.842;2024-03-17T22:35:13;5.90;99.50
45849;DHT22;31567;54.600;9.842;2024-03-17T22:38:53;5.80;99.50
45849;DHT22;31567;54.600;9.842;2024-03-17T22:42:32;5.80;99.50
45849;DHT22;31567;54.600;9.842;2024-03-17T22:46:14;5.80;99.50
45849;DHT22;31567;54.600;9.842;2024-03-17T22:49:53;5.80;99.50
45849;DHT22;31567;54.600;9.842;2024-03-17T22:53:43;5.80;99.40
45849;DHT22;31567;54.600;9.842;2024-03-17T22:57:23;5.70;99.40
45849;DHT22;31567;54.600;9.842;2024-03-17T23:01:02;5.70;99.30
45849;DHT22;31567;54.600;9.842;2024-03-17T23:04:43;5.70;99.20
45849;DHT22;31567;54.600;9.842;2024-03-17T23:08:24;5.70;99.00
45849;DHT22;31567;54.600;9.842;2024-03-17T23:12:04;5.70;99.00
45849;DHT22;31567;54.600;9.842;2024-03-17T23:15:46;5.60;99.00
45849;DHT22;31567;54.600;9.842;2024-03-17T23:19:25;5.70;99.00
45849;DHT22;31567;54.600;9.842;2024-03-17T23:23:06;5.70;99.00
45849;DHT22;31567;54.600;9.842;2024-03-17T23:26:48;5.80;99.00
45849;DHT22;31567;54.600;9.842;2024-03-17T23:30:28;5.70;98.90
45849;DHT22;31567;54.600;9.842;2024-03-17T23:34:08;5.80;98.80
45849;DHT22;31567;54.600;9.842;2024-03-17T23:37:47;5.80;98.70
45849;DHT22;31567;54.600;9.842;2024-03-17T23:41:27;5.80;98.60
45849;DHT22;31567;54.600;9.842;2024-03-17T23:45:09;5.80;98.50
45849;DHT22;31567;54.600;9.842;2024-03-17T23:48:49;5.80;98.50
45849;DHT22;31567;54.600;9.842;2024-03-17T23:52:29;5.80;98.30
45849;DHT22;31567;54.600;9.842;2024-03-17T23:56:10;5.80;98.20